Date,TemperatureHighF,TemperatureAvgF,TemperatureLowF,DewpointHighF,DewpointAvgF,DewpointLowF,HumidityHigh,HumidityAvg,HumidityLow,PressureMaxIn,PressureMinIn,WindSpeedMaxMPH,WindSpeedAvgMPH,GustSpeedMaxMPH,PrecipitationSumIn
2013-4-1,74.3,59.1,53.2,57.1,53.8,49.4,99,85,46,30.24,30.14,2,0,4,0.11
2013-4-2,77.7,62.4,48.9,57.2,53.4,48.6,99,75,43,30.25,30.13,3,1,5,0.00
2013-4-3,81.0,62.1,49.8,57.2,52.7,48.8,98,74,36,30.22,30.04,2,0,4,0.00
2013-4-4,67.1,58.8,52.9,60.1,53.4,44.1,99,83,57,30.19,30.03,6,2,11,20.46
2013-4-5,72.9,60.6,49.3,56.2,52.2,49.0,99,76,46,30.24,30.17,4,1,7,0.31
2013-4-6,73.0,61.1,54.3,56.7,52.8,49.4,88,75,53,30.27,29.59,4,1,8,0.00
2013-4-7,69.8,59.1,52.0,55.2,49.3,45.3,91,71,54,30.22,29.88,8,2,11,0.00
2013-4-8,67.6,55.9,50.5,49.9,38.1,25.0,92,57,20,30.11,29.83,8,2,19,0.00
2013-4-9,78.4,61.7,52.9,40.0,34.7,28.8,51,39,17,30.19,30.10,8,4,15,0.00
2013-4-10,92.7,73.0,60.3,60.0,47.8,39.9,60,42,22,30.26,30.03,4,1,9,0.00
2013-4-11,81.3,69.0,57.0,50.5,38.3,26.9,73,36,14,30.08,29.89,8,2,18,0.00
2013-4-12,88.3,65.3,47.3,56.1,44.0,36.7,85,51,17,29.98,29.86,4,1,8,0.00
2013-4-13,82.6,62.4,47.3,53.3,48.7,44.7,92,64,32,29.96,29.84,3,1,4,0.00
2013-4-14,80.1,64.5,48.4,46.9,39.6,24.4,86,44,18,29.99,29.81,6,2,11,0.00
2013-4-15,69.4,54.8,46.2,46.7,42.1,28.9,91,65,22,30.00,29.87,5,1,9,0.00
2013-4-16,70.9,60.4,51.1,31.0,25.9,20.1,43,29,15,30.26,30.01,10,4,18,0.00
2013-4-17,72.7,59.4,49.6,35.6,28.0,19.9,55,34,14,30.36,30.26,10,3,15,20.46
2013-4-18,82.0,64.7,49.6,43.4,34.0,27.1,55,35,14,30.37,30.25,7,2,12,0.00
2013-4-19,89.6,68.7,46.0,53.9,47.9,41.7,87,52,23,30.32,30.11,3,0,5,0.00
2013-4-20,88.2,69.1,58.5,48.3,38.4,26.5,66,35,12,30.20,30.03,8,2,16,0.00
2013-4-21,92.8,69.9,50.5,50.2,43.4,32.4,77,45,13,30.13,29.98,7,1,12,0.00
2013-4-22,90.7,76.3,61.5,47.6,38.5,27.3,59,29,11,30.05,29.92,9,3,13,20.46
2013-4-23,88.0,72.3,58.6,44.4,29.0,21.8,56,22,12,30.03,29.90,8,3,18,0.00
2013-4-24,92.7,68.9,48.2,49.1,39.5,25.8,84,44,12,29.94,29.82,7,2,11,0.00
2013-4-25,82.2,63.1,49.6,54.7,49.2,44.7,85,63,36,30.15,29.91,5,1,8,0.00
2013-4-26,87.6,63.9,47.3,56.9,50.5,45.5,95,66,33,30.29,30.15,2,1,4,0.00
2013-4-27,93.4,68.8,49.8,61.3,53.3,46.6,90,62,31,30.29,30.09,4,1,6,0.00
2013-4-28,94.6,70.6,51.6,57.1,50.8,37.2,93,57,15,30.12,29.92,5,1,9,0.00
2013-4-29,94.8,77.9,64.0,57.4,47.5,39.9,78,37,15,29.97,29.80,10,2,14,0.00
2013-4-30,85.3,75.4,67.3,48.6,31.2,20.5,42,21,12,29.96,29.83,12,5,25,0.00